sensor_id;sensor_type;location;lat;lon;timestamp;P1;durP1;ratioP1;P2;durP2;ratioP2
9783;SDS011;4931;44.874;-1.092;2023-06-19T00:00:28;7.00;;;3.67;;
9783;SDS011;4931;44.874;-1.092;2023-06-19T00:02:55;7.20;;;4.22;;
9783;SDS011;4931;44.874;-1.092;2023-06-19T00:05:21;7.25;;;3.67;;
9783;SDS011;4931;44.874;-1.092;2023-06-19T00:07:48;4.70;;;3.38;;
9783;SDS011;4931;44.874;-1.092;2023-06-19T00:10:14;8.00;;;4.00;;
9783;SDS011;4931;44.874;-1.092;2023-06-19T00:12:40;6.70;;;3.67;;
9783;SDS011;4931;44.874;-1.092;2023-06-19T00:15:05;6.55;;;4.43;;
9783;SDS011;4931;44.874;-1.092;2023-06-19T00:17:32;8.10;;;4.13;;
9783;SDS011;4931;44.874;-1.092;2023-06-19T00:19:58;5.40;;;4.00;;
9783;SDS011;4931;44.874;-1.092;2023-06-19T00:22:24;6.47;;;3.70;;
9783;SDS011;4931;44.874;-1.092;2023-06-19T00:24:50;6.47;;;4.28;;
9783;SDS011;4931;44.874;-1.092;2023-06-19T00:27:17;8.02;;;4.15;;
9783;SDS011;4931;44.874;-1.092;2023-06-19T00:29:43;5.65;;;3.78;;
9783;SDS011;4931;44.874;-1.092;2023-06-19T00:32:08;8.88;;;4.70;;
9783;SDS011;4931;44.874;-1.092;2023-06-19T00:34:34;7.85;;;4.70;;
9783;SDS011;4931;44.874;-1.092;2023-06-19T00:37:02;7.18;;;5.20;;
9783;SDS011;4931;44.874;-1.092;2023-06-19T00:39:28;7.60;;;4.72;;
9783;SDS011;4931;44.874;-1.092;2023-06-19T00:41:54;9.38;;;5.32;;
9783;SDS011;4931;44.874;-1.092;2023-06-19T00:44:20;7.30;;;5.07;;
9783;SDS011;4931;44.874;-1.092;2023-06-19T00:46:46;8.98;;;5.68;;
9783;SDS011;4931;44.874;-1.092;2023-06-19T00:49:15;8.40;;;5.40;;
9783;SDS011;4931;44.874;-1.092;2023-06-19T00:51:41;6.93;;;5.28;;
9783;SDS011;4931;44.874;-1.092;2023-06-19T00:54:07;6.97;;;4.88;;
9783;SDS011;4931;44.874;-1.092;2023-06-19T00:56:33;7.85;;;5.28;;
9783;SDS011;4931;44.874;-1.092;2023-06-19T00:59:02;10.07;;;5.30;;
9783;SDS011;4931;44.874;-1.092;2023-06-19T01:01:32;9.25;;;5.43;;
9783;SDS011;4931;44.874;-1.092;2023-06-19T01:03:58;7.25;;;5.45;;
9783;SDS011;4931;44.874;-1.092;2023-06-19T01:06:24;7.22;;;5.10;;
9783;SDS011;4931;44.874;-1.092;2023-06-19T01:11:28;8.07;;;5.38;;
9783;SDS011;4931;44.874;-1.092;2023-06-19T01:14:30;8.10;;;5.47;;
9783;SDS011;4931;44.874;-1.092;2023-06-19T01:16:58;8.23;;;5.87;;
9783;SDS011;4931;44.874;-1.092;2023-06-19T01:19:24;7.60;;;5.47;;
9783;SDS011;4931;44.874;-1.092;2023-06-19T01:21:51;6.75;;;5.03;;
9783;SDS011;4931;44.874;-1.092;2023-06-19T01:24:16;8.73;;;5.32;;
9783;SDS011;4931;44.874;-1.092;2023-06-19T01:26:42;11.90;;;5.22;;
9783;SDS011;4931;44.874;-1.092;2023-06-19T01:29:11;9.32;;;5.65;;
9783;SDS011;4931;44.874;-1.092;2023-06-19T01:34:19;10.65;;;5.88;;
9783;SDS011;4931;44.874;-1.092;2023-06-19T01:36:46;12.23;;;5.55;;
9783;SDS011;4931;44.874;-1.092;2023-06-19T01:39:14;9.10;;;5.80;;
9783;SDS011;4931;44.874;-1.092;2023-06-19T01:41:42;8.23;;;5.60;;
9783;SDS011;4931;44.874;-1.092;2023-06-19T01:44:08;7.53;;;5.15;;
9783;SDS011;4931;44.874;-1.092;2023-06-19T01:46:34;9.07;;;5.57;;
9783;SDS011;4931;44.874;-1.092;2023-06-19T01:48:59;9.70;;;5.75;;
9783;SDS011;4931;44.874;-1.092;2023-06-19T01:51:25;10.13;;;6.13;;
9783;SDS011;4931;44.874;-1.092;2023-06-19T01:53:50;11.77;;;6.55;;
9783;SDS011;4931;44.874;-1.092;2023-06-19T01:56:16;10.55;;;6.35;;
9783;SDS011;4931;44.874;-1.092;2023-06-19T01:58:42;10.88;;;6.28;;
9783;SDS011;4931;44.874;-1.092;2023-06-19T02:01:07;10.35;;;6.50;;
9783;SDS011;4931;44.874;-1.092;2023-06-19T02:03:32;9.38;;;6.38;;
9783;SDS011;4931;44.874;-1.092;2023-06-19T02:05:58;10.00;;;6.35;;
9783;SDS011;4931;44.874;-1.092;2023-06-19T02:08:24;12.80;;;6.57;;
9783;SDS011;4931;44.874;-1.092;2023-06-19T02:10:49;9.02;;;5.85;;
9783;SDS011;4931;44.874;-1.092;2023-06-19T02:13:14;10.02;;;6.25;;
9783;SDS011;4931;44.874;-1.092;2023-06-19T02:15:40;11.85;;;6.20;;
9783;SDS011;4931;44.874;-1.092;2023-06-19T02:18:06;11.18;;;5.80;;
9783;SDS011;4931;44.874;-1.092;2023-06-19T02:20:32;10.00;;;5.88;;
9783;SDS011;4931;44.874;-1.092;2023-06-19T02:22:58;7.75;;;5.38;;
9783;SDS011;4931;44.874;-1.092;2023-06-19T02:25:23;11.05;;;5.88;;
9783;SDS011;4931;44.874;-1.092;2023-06-19T02:27:48;8.10;;;5.57;;
9783;SDS011;4931;44.874;-1.092;2023-06-19T02:30:14;9.80;;;5.65;;
9783;SDS011;4931;44.874;-1.092;2023-06-19T02:32:39;7.93;;;5.65;;
9783;SDS011;4931;44.874;-1.092;2023-06-19T02:35:06;9.45;;;6.28;;
9783;SDS011;4931;44.874;-1.092;2023-06-19T02:37:34;10.52;;;5.93;;
9783;SDS011;4931;44.874;-1.092;2023-06-19T02:40:01;9.93;;;6.35;;
9783;SDS011;4931;44.874;-1.092;2023-06-19T02:42:28;9.45;;;6.28;;
9783;SDS011;4931;44.874;-1.092;2023-06-19T02:44:54;9.38;;;5.63;;
9783;SDS011;4931;44.874;-1.092;2023-06-19T02:47:19;9.38;;;6.45;;
9783;SDS011;4931;44.874;-1.092;2023-06-19T02:49:45;11.38;;;6.57;;
9783;SDS011;4931;44.874;-1.092;2023-06-19T02:52:10;9.80;;;6.05;;
9783;SDS011;4931;44.874;-1.092;2023-06-19T02:54:36;10.27;;;6.10;;
9783;SDS011;4931;44.874;-1.092;2023-06-19T02:57:01;11.60;;;5.93;;
9783;SDS011;4931;44.874;-1.092;2023-06-19T02:59:27;9.68;;;6.30;;
9783;SDS011;4931;44.874;-1.092;2023-06-19T03:01:52;9.23;;;6.15;;
9783;SDS011;4931;44.874;-1.092;2023-06-19T03:04:18;10.20;;;6.00;;
9783;SDS011;4931;44.874;-1.092;2023-06-19T03:06:43;11.20;;;6.28;;
9783;SDS011;4931;44.874;-1.092;2023-06-19T03:09:09;9.93;;;6.25;;
9783;SDS011;4931;44.874;-1.092;2023-06-19T03:11:40;14.43;;;9.45;;
9783;SDS011;4931;44.874;-1.092;2023-06-19T03:14:06;11.95;;;7.10;;
9783;SDS011;4931;44.874;-1.092;2023-06-19T03:16:33;11.55;;;6.65;;
9783;SDS011;4931;44.874;-1.092;2023-06-19T03:18:59;9.40;;;6.55;;
9783;SDS011;4931;44.874;-1.092;2023-06-19T03:21:25;8.88;;;6.32;;
9783;SDS011;4931;44.874;-1.092;2023-06-19T03:23:51;10.68;;;7.00;;
9783;SDS011;4931;44.874;-1.092;2023-06-19T03:26:18;9.30;;;6.32;;
9783;SDS011;4931;44.874;-1.092;2023-06-19T03:28:44;10.00;;;6.45;;
9783;SDS011;4931;44.874;-1.092;2023-06-19T03:31:09;9.75;;;6.10;;
9783;SDS011;4931;44.874;-1.092;2023-06-19T03:33:35;8.65;;;5.72;;
9783;SDS011;4931;44.874;-1.092;2023-06-19T03:36:00;8.45;;;6.05;;
9783;SDS011;4931;44.874;-1.092;2023-06-19T03:38:26;10.82;;;6.32;;
9783;SDS011;4931;44.874;-1.092;2023-06-19T03:40:52;8.90;;;5.85;;
9783;SDS011;4931;44.874;-1.092;2023-06-19T03:43:17;7.65;;;5.60;;
9783;SDS011;4931;44.874;-1.092;2023-06-19T03:45:43;9.52;;;5.85;;
9783;SDS011;4931;44.874;-1.092;2023-06-19T03:48:08;8.27;;;6.20;;
9783;SDS011;4931;44.874;-1.092;2023-06-19T03:50:34;9.73;;;5.50;;
9783;SDS011;4931;44.874;-1.092;2023-06-19T03:53:00;13.30;;;6.43;;
9783;SDS011;4931;44.874;-1.092;2023-06-19T03:55:25;12.48;;;5.95;;
9783;SDS011;4931;44.874;-1.092;2023-06-19T03:57:51;9.98;;;6.10;;
9783;SDS011;4931;44.874;-1.092;2023-06-19T04:00:17;10.02;;;5.85;;
9783;SDS011;4931;44.874;-1.092;2023-06-19T04:02:43;11.50;;;5.97;;
9783;SDS011;4931;44.874;-1.092;2023-06-19T04:05:11;9.55;;;6.32;;
9783;SDS011;4931;44.874;-1.092;2023-06-19T04:07:38;9.02;;;5.53;;
9783;SDS011;4931;44.874;-1.092;2023-06-19T04:10:03;9.10;;;5.50;;
9783;SDS011;4931;44.874;-1.092;2023-06-19T04:12:29;8.88;;;5.90;;
9783;SDS011;4931;44.874;-1.092;2023-06-19T04:14:55;7.97;;;5.53;;
9783;SDS011;4931;44.874;-1.092;2023-06-19T04:17:20;10.23;;;5.95;;
9783;SDS011;4931;44.874;-1.092;2023-06-19T04:19:46;10.73;;;5.82;;
9783;SDS011;4931;44.874;-1.092;2023-06-19T04:22:11;11.43;;;6.10;;
9783;SDS011;4931;44.874;-1.092;2023-06-19T04:24:37;8.82;;;5.95;;
9783;SDS011;4931;44.874;-1.092;2023-06-19T04:27:02;8.50;;;5.60;;
9783;SDS011;4931;44.874;-1.092;2023-06-19T04:29:28;10.45;;;5.50;;
9783;SDS011;4931;44.874;-1.092;2023-06-19T04:31:57;10.57;;;6.07;;
9783;SDS011;4931;44.874;-1.092;2023-06-19T04:34:28;9.35;;;5.95;;
9783;SDS011;4931;44.874;-1.092;2023-06-19T04:36:54;8.45;;;5.40;;
9783;SDS011;4931;44.874;-1.092;2023-06-19T04:39:24;9.10;;;5.85;;
9783;SDS011;4931;44.874;-1.092;2023-06-19T04:41:49;8.95;;;5.72;;
9783;SDS011;4931;44.874;-1.092;2023-06-19T04:44:15;7.78;;;5.43;;
9783;SDS011;4931;44.874;-1.092;2023-06-19T04:46:41;9.05;;;5.72;;
9783;SDS011;4931;44.874;-1.092;2023-06-19T04:49:09;9.65;;;5.32;;
9783;SDS011;4931;44.874;-1.092;2023-06-19T04:51:34;7.38;;;5.40;;
9783;SDS011;4931;44.874;-1.092;2023-06-19T04:54:00;10.13;;;5.90;;
9783;SDS011;4931;44.874;-1.092;2023-06-19T04:56:26;12.63;;;6.55;;
9783;SDS011;4931;44.874;-1.092;2023-06-19T04:58:51;8.57;;;6.50;;
9783;SDS011;4931;44.874;-1.092;2023-06-19T05:01:17;9.35;;;5.93;;
9783;SDS011;4931;44.874;-1.092;2023-06-19T05:03:43;9.45;;;6.03;;
9783;SDS011;4931;44.874;-1.092;2023-06-19T05:06:11;9.82;;;5.50;;
9783;SDS011;4931;44.874;-1.092;2023-06-19T05:08:37;8.95;;;6.18;;
9783;SDS011;4931;44.874;-1.092;2023-06-19T05:11:03;9.30;;;6.53;;
9783;SDS011;4931;44.874;-1.092;2023-06-19T05:13:28;11.30;;;7.28;;
9783;SDS011;4931;44.874;-1.092;2023-06-19T05:15:54;9.15;;;6.10;;
9783;SDS011;4931;44.874;-1.092;2023-06-19T05:18:21;11.63;;;6.13;;
9783;SDS011;4931;44.874;-1.092;2023-06-19T05:20:47;10.90;;;6.32;;
9783;SDS011;4931;44.874;-1.092;2023-06-19T05:23:12;10.00;;;6.32;;
9783;SDS011;4931;44.874;-1.092;2023-06-19T05:25:38;11.57;;;6.28;;
9783;SDS011;4931;44.874;-1.092;2023-06-19T05:28:03;11.25;;;6.50;;
9783;SDS011;4931;44.874;-1.092;2023-06-19T05:30:29;11.82;;;7.00;;
9783;SDS011;4931;44.874;-1.092;2023-06-19T05:32:54;12.70;;;6.55;;
9783;SDS011;4931;44.874;-1.092;2023-06-19T05:35:20;10.13;;;6.68;;
9783;SDS011;4931;44.874;-1.092;2023-06-19T05:37:47;8.65;;;6.53;;
9783;SDS011;4931;44.874;-1.092;2023-06-19T05:40:12;12.38;;;7.15;;
9783;SDS011;4931;44.874;-1.092;2023-06-19T05:42:39;10.40;;;6.50;;
9783;SDS011;4931;44.874;-1.092;2023-06-19T05:45:05;12.55;;;6.90;;
9783;SDS011;4931;44.874;-1.092;2023-06-19T05:47:32;11.30;;;6.68;;
9783;SDS011;4931;44.874;-1.092;2023-06-19T05:49:58;10.38;;;6.35;;
9783;SDS011;4931;44.874;-1.092;2023-06-19T05:52:24;8.25;;;6.03;;
9783;SDS011;4931;44.874;-1.092;2023-06-19T05:54:50;9.80;;;6.60;;
9783;SDS011;4931;44.874;-1.092;2023-06-19T05:57:16;11.73;;;6.72;;
9783;SDS011;4931;44.874;-1.092;2023-06-19T05:59:45;9.73;;;6.50;;
9783;SDS011;4931;44.874;-1.092;2023-06-19T06:02:14;9.15;;;6.10;;
9783;SDS011;4931;44.874;-1.092;2023-06-19T06:04:40;11.02;;;6.53;;
9783;SDS011;4931;44.874;-1.092;2023-06-19T06:07:06;11.77;;;6.32;;
9783;SDS011;4931;44.874;-1.092;2023-06-19T06:09:31;9.60;;;6.25;;
9783;SDS011;4931;44.874;-1.092;2023-06-19T06:11:58;9.98;;;6.15;;
9783;SDS011;4931;44.874;-1.092;2023-06-19T06:14:24;8.73;;;6.00;;
9783;SDS011;4931;44.874;-1.092;2023-06-19T06:16:50;12.27;;;5.82;;
9783;SDS011;4931;44.874;-1.092;2023-06-19T06:19:15;10.13;;;6.15;;
9783;SDS011;4931;44.874;-1.092;2023-06-19T06:21:40;11.50;;;5.80;;
9783;SDS011;4931;44.874;-1.092;2023-06-19T06:24:06;8.80;;;5.82;;
9783;SDS011;4931;44.874;-1.092;2023-06-19T06:26:32;8.27;;;6.38;;
9783;SDS011;4931;44.874;-1.092;2023-06-19T06:28:58;10.85;;;6.47;;
9783;SDS011;4931;44.874;-1.092;2023-06-19T06:31:23;9.00;;;6.00;;
9783;SDS011;4931;44.874;-1.092;2023-06-19T06:33:49;9.23;;;6.60;;
9783;SDS011;4931;44.874;-1.092;2023-06-19T06:36:15;9.18;;;5.93;;
9783;SDS011;4931;44.874;-1.092;2023-06-19T06:38:40;10.10;;;5.95;;
9783;SDS011;4931;44.874;-1.092;2023-06-19T06:41:06;8.80;;;5.80;;
9783;SDS011;4931;44.874;-1.092;2023-06-19T06:43:33;10.48;;;6.10;;
9783;SDS011;4931;44.874;-1.092;2023-06-19T06:45:58;9.70;;;5.50;;
9783;SDS011;4931;44.874;-1.092;2023-06-19T06:48:24;9.82;;;5.78;;
9783;SDS011;4931;44.874;-1.092;2023-06-19T06:50:50;9.23;;;6.05;;
9783;SDS011;4931;44.874;-1.092;2023-06-19T06:53:18;9.57;;;5.90;;
9783;SDS011;4931;44.874;-1.092;2023-06-19T06:55:43;10.45;;;5.50;;
9783;SDS011;4931;44.874;-1.092;2023-06-19T06:58:09;7.45;;;5.55;;
9783;SDS011;4931;44.874;-1.092;2023-06-19T07:00:34;8.70;;;5.50;;
9783;SDS011;4931;44.874;-1.092;2023-06-19T07:03:00;8.43;;;5.53;;
9783;SDS011;4931;44.874;-1.092;2023-06-19T07:05:25;8.25;;;5.50;;
9783;SDS011;4931;44.874;-1.092;2023-06-19T07:07:51;8.88;;;5.90;;
9783;SDS011;4931;44.874;-1.092;2023-06-19T07:10:16;8.27;;;5.63;;
9783;SDS011;4931;44.874;-1.092;2023-06-19T07:12:45;9.65;;;5.85;;
9783;SDS011;4931;44.874;-1.092;2023-06-19T07:15:12;7.82;;;5.60;;
9783;SDS011;4931;44.874;-1.092;2023-06-19T07:17:37;10.25;;;6.30;;
9783;SDS011;4931;44.874;-1.092;2023-06-19T07:20:03;8.98;;;5.80;;
9783;SDS011;4931;44.874;-1.092;2023-06-19T07:22:29;8.93;;;5.93;;
9783;SDS011;4931;44.874;-1.092;2023-06-19T07:24:55;7.50;;;5.95;;
9783;SDS011;4931;44.874;-1.092;2023-06-19T07:27:20;10.82;;;6.53;;
9783;SDS011;4931;44.874;-1.092;2023-06-19T07:29:46;10.48;;;6.32;;
9783;SDS011;4931;44.874;-1.092;2023-06-19T07:32:11;10.25;;;6.50;;
9783;SDS011;4931;44.874;-1.092;2023-06-19T07:34:37;11.43;;;6.53;;
9783;SDS011;4931;44.874;-1.092;2023-06-19T07:37:02;8.98;;;5.93;;
9783;SDS011;4931;44.874;-1.092;2023-06-19T07:39:28;8.48;;;6.32;;
9783;SDS011;4931;44.874;-1.092;2023-06-19T07:41:53;7.90;;;6.18;;
9783;SDS011;4931;44.874;-1.092;2023-06-19T07:44:19;10.85;;;6.78;;
9783;SDS011;4931;44.874;-1.092;2023-06-19T07:46:46;10.00;;;6.55;;
9783;SDS011;4931;44.874;-1.092;2023-06-19T07:49:11;10.70;;;6.55;;
9783;SDS011;4931;44.874;-1.092;2023-06-19T07:51:37;10.80;;;6.65;;
9783;SDS011;4931;44.874;-1.092;2023-06-19T07:54:02;10.52;;;6.40;;
9783;SDS011;4931;44.874;-1.092;2023-06-19T07:56:28;11.15;;;7.10;;
9783;SDS011;4931;44.874;-1.092;2023-06-19T07:58:53;9.77;;;6.70;;
9783;SDS011;4931;44.874;-1.092;2023-06-19T08:01:19;13.23;;;6.63;;
9783;SDS011;4931;44.874;-1.092;2023-06-19T08:03:45;10.10;;;6.95;;
9783;SDS011;4931;44.874;-1.092;2023-06-19T08:06:10;10.82;;;7.20;;
9783;SDS011;4931;44.874;-1.092;2023-06-19T08:08:36;13.00;;;7.80;;
9783;SDS011;4931;44.874;-1.092;2023-06-19T08:11:01;10.23;;;7.93;;
9783;SDS011;4931;44.874;-1.092;2023-06-19T08:13:27;11.80;;;8.32;;
9783;SDS011;4931;44.874;-1.092;2023-06-19T08:15:52;11.20;;;8.07;;
9783;SDS011;4931;44.874;-1.092;2023-06-19T08:18:18;11.23;;;7.78;;
9783;SDS011;4931;44.874;-1.092;2023-06-19T08:20:43;10.52;;;7.53;;
9783;SDS011;4931;44.874;-1.092;2023-06-19T08:23:09;17.35;;;9.13;;
9783;SDS011;4931;44.874;-1.092;2023-06-19T08:25:34;12.30;;;7.85;;
9783;SDS011;4931;44.874;-1.092;2023-06-19T08:28:00;13.15;;;8.88;;
9783;SDS011;4931;44.874;-1.092;2023-06-19T08:30:25;12.02;;;7.95;;
9783;SDS011;4931;44.874;-1.092;2023-06-19T08:32:51;14.82;;;8.00;;
9783;SDS011;4931;44.874;-1.092;2023-06-19T08:35:16;11.68;;;7.80;;
9783;SDS011;4931;44.874;-1.092;2023-06-19T08:37:42;10.90;;;8.70;;
9783;SDS011;4931;44.874;-1.092;2023-06-19T08:40:07;12.88;;;8.23;;
9783;SDS011;4931;44.874;-1.092;2023-06-19T08:42:34;11.43;;;8.35;;
9783;SDS011;4931;44.874;-1.092;2023-06-19T08:45:00;12.30;;;8.65;;
9783;SDS011;4931;44.874;-1.092;2023-06-19T08:47:30;10.27;;;8.18;;
9783;SDS011;4931;44.874;-1.092;2023-06-19T08:49:58;10.05;;;7.43;;
9783;SDS011;4931;44.874;-1.092;2023-06-19T08:52:24;10.52;;;8.60;;
9783;SDS011;4931;44.874;-1.092;2023-06-19T08:54:49;13.48;;;9.20;;
9783;SDS011;4931;44.874;-1.092;2023-06-19T08:57:14;12.80;;;8.52;;
9783;SDS011;4931;44.874;-1.092;2023-06-19T08:59:41;10.85;;;8.43;;
9783;SDS011;4931;44.874;-1.092;2023-06-19T09:02:13;14.95;;;8.55;;
9783;SDS011;4931;44.874;-1.092;2023-06-19T09:04:39;10.48;;;8.57;;
9783;SDS011;4931;44.874;-1.092;2023-06-19T09:07:07;11.77;;;8.82;;
9783;SDS011;4931;44.874;-1.092;2023-06-19T09:09:33;12.35;;;8.23;;
9783;SDS011;4931;44.874;-1.092;2023-06-19T09:12:05;12.88;;;9.02;;
9783;SDS011;4931;44.874;-1.092;2023-06-19T09:14:35;11.57;;;9.30;;
9783;SDS011;4931;44.874;-1.092;2023-06-19T09:17:02;12.85;;;8.70;;
9783;SDS011;4931;44.874;-1.092;2023-06-19T09:19:29;11.45;;;9.20;;
9783;SDS011;4931;44.874;-1.092;2023-06-19T09:22:02;9.52;;;8.40;;
9783;SDS011;4931;44.874;-1.092;2023-06-19T09:24:37;10.27;;;8.40;;
9783;SDS011;4931;44.874;-1.092;2023-06-19T09:29:39;11.20;;;8.70;;
9783;SDS011;4931;44.874;-1.092;2023-06-19T09:32:15;15.05;;;8.35;;
9783;SDS011;4931;44.874;-1.092;2023-06-19T09:34:48;11.68;;;7.97;;
9783;SDS011;4931;44.874;-1.092;2023-06-19T09:37:16;9.60;;;8.57;;
9783;SDS011;4931;44.874;-1.092;2023-06-19T09:39:50;10.82;;;8.48;;
9783;SDS011;4931;44.874;-1.092;2023-06-19T09:42:18;11.10;;;8.32;;
9783;SDS011;4931;44.874;-1.092;2023-06-19T09:44:47;9.80;;;7.70;;
9783;SDS011;4931;44.874;-1.092;2023-06-19T09:47:22;10.45;;;7.88;;
9783;SDS011;4931;44.874;-1.092;2023-06-19T09:49:54;11.68;;;7.90;;
9783;SDS011;4931;44.874;-1.092;2023-06-19T09:52:20;12.48;;;7.63;;
9783;SDS011;4931;44.874;-1.092;2023-06-19T09:54:52;9.45;;;7.72;;
9783;SDS011;4931;44.874;-1.092;2023-06-19T09:57:18;9.90;;;7.50;;
9783;SDS011;4931;44.874;-1.092;2023-06-19T09:59:47;7.97;;;6.75;;
9783;SDS011;4931;44.874;-1.092;2023-06-19T10:02:15;9.15;;;7.70;;
9783;SDS011;4931;44.874;-1.092;2023-06-19T10:04:46;8.65;;;7.50;;
9783;SDS011;4931;44.874;-1.092;2023-06-19T10:07:15;7.70;;;6.57;;
9783;SDS011;4931;44.874;-1.092;2023-06-19T10:10:00;7.45;;;6.60;;
9783;SDS011;4931;44.874;-1.092;2023-06-19T10:12:48;8.63;;;6.47;;
9783;SDS011;4931;44.874;-1.092;2023-06-19T10:17:50;7.43;;;5.32;;
9783;SDS011;4931;44.874;-1.092;2023-06-19T10:20:21;7.78;;;5.90;;
9783;SDS011;4931;44.874;-1.092;2023-06-19T10:22:59;6.10;;;5.50;;
9783;SDS011;4931;44.874;-1.092;2023-06-19T10:25:28;5.63;;;5.00;;
9783;SDS011;4931;44.874;-1.092;2023-06-19T10:27:56;7.15;;;5.20;;
9783;SDS011;4931;44.874;-1.092;2023-06-19T10:30:23;6.53;;;4.72;;
9783;SDS011;4931;44.874;-1.092;2023-06-19T10:32:49;5.85;;;4.72;;
9783;SDS011;4931;44.874;-1.092;2023-06-19T10:35:15;5.40;;;4.90;;
9783;SDS011;4931;44.874;-1.092;2023-06-19T10:37:42;5.15;;;4.40;;
9783;SDS011;4931;44.874;-1.092;2023-06-19T10:40:08;4.97;;;4.47;;
9783;SDS011;4931;44.874;-1.092;2023-06-19T10:42:41;5.80;;;4.38;;
9783;SDS011;4931;44.874;-1.092;2023-06-19T10:45:08;7.60;;;4.32;;
9783;SDS011;4931;44.874;-1.092;2023-06-19T10:47:40;6.00;;;4.15;;
9783;SDS011;4931;44.874;-1.092;2023-06-19T10:50:11;4.93;;;4.13;;
9783;SDS011;4931;44.874;-1.092;2023-06-19T10:52:44;5.22;;;4.32;;
9783;SDS011;4931;44.874;-1.092;2023-06-19T10:55:11;6.43;;;4.32;;
9783;SDS011;4931;44.874;-1.092;2023-06-19T10:57:38;5.75;;;4.30;;
9783;SDS011;4931;44.874;-1.092;2023-06-19T11:00:05;5.47;;;4.18;;
9783;SDS011;4931;44.874;-1.092;2023-06-19T11:02:41;7.25;;;3.90;;
9783;SDS011;4931;44.874;-1.092;2023-06-19T11:05:08;4.47;;;3.67;;
9783;SDS011;4931;44.874;-1.092;2023-06-19T11:07:38;4.28;;;3.70;;
9783;SDS011;4931;44.874;-1.092;2023-06-19T11:10:04;4.32;;;3.83;;
9783;SDS011;4931;44.874;-1.092;2023-06-19T11:12:30;6.28;;;4.22;;
9783;SDS011;4931;44.874;-1.092;2023-06-19T11:14:58;6.28;;;4.10;;
9783;SDS011;4931;44.874;-1.092;2023-06-19T11:17:24;4.30;;;3.67;;
9783;SDS011;4931;44.874;-1.092;2023-06-19T11:19:50;5.32;;;3.58;;
9783;SDS011;4931;44.874;-1.092;2023-06-19T11:22:16;4.65;;;3.90;;
9783;SDS011;4931;44.874;-1.092;2023-06-19T11:24:45;5.38;;;4.22;;
9783;SDS011;4931;44.874;-1.092;2023-06-19T11:27:18;5.22;;;3.90;;
9783;SDS011;4931;44.874;-1.092;2023-06-19T11:29:55;4.38;;;3.90;;
9783;SDS011;4931;44.874;-1.092;2023-06-19T11:32:31;4.10;;;3.67;;
9783;SDS011;4931;44.874;-1.092;2023-06-19T11:35:06;6.10;;;4.05;;
9783;SDS011;4931;44.874;-1.092;2023-06-19T11:37:34;5.13;;;3.95;;
9783;SDS011;4931;44.874;-1.092;2023-06-19T11:40:00;6.68;;;4.70;;
9783;SDS011;4931;44.874;-1.092;2023-06-19T11:42:26;5.65;;;4.35;;
9783;SDS011;4931;44.874;-1.092;2023-06-19T11:44:59;5.22;;;4.20;;
9783;SDS011;4931;44.874;-1.092;2023-06-19T11:47:29;5.68;;;4.13;;
9783;SDS011;4931;44.874;-1.092;2023-06-19T11:49:55;5.00;;;4.50;;
9783;SDS011;4931;44.874;-1.092;2023-06-19T11:52:21;5.90;;;4.80;;
9783;SDS011;4931;44.874;-1.092;2023-06-19T11:54:46;8.63;;;4.75;;
9783;SDS011;4931;44.874;-1.092;2023-06-19T11:57:12;5.75;;;3.78;;
9783;SDS011;4931;44.874;-1.092;2023-06-19T11:59:38;6.95;;;3.85;;
9783;SDS011;4931;44.874;-1.092;2023-06-19T12:02:05;5.70;;;4.20;;
9783;SDS011;4931;44.874;-1.092;2023-06-19T12:04:31;4.78;;;3.95;;
9783;SDS011;4931;44.874;-1.092;2023-06-19T12:06:56;5.22;;;3.90;;
9783;SDS011;4931;44.874;-1.092;2023-06-19T12:09:22;4.43;;;4.03;;
9783;SDS011;4931;44.874;-1.092;2023-06-19T12:11:48;4.40;;;3.72;;
9783;SDS011;4931;44.874;-1.092;2023-06-19T12:14:13;5.70;;;3.38;;
9783;SDS011;4931;44.874;-1.092;2023-06-19T12:16:39;4.18;;;2.90;;
9783;SDS011;4931;44.874;-1.092;2023-06-19T12:19:04;4.32;;;2.90;;
9783;SDS011;4931;44.874;-1.092;2023-06-19T12:21:30;4.38;;;3.15;;
9783;SDS011;4931;44.874;-1.092;2023-06-19T12:23:56;3.47;;;2.42;;
9783;SDS011;4931;44.874;-1.092;2023-06-19T12:26:21;4.07;;;2.70;;
9783;SDS011;4931;44.874;-1.092;2023-06-19T12:28:50;3.50;;;3.08;;
9783;SDS011;4931;44.874;-1.092;2023-06-19T12:31:15;4.03;;;3.17;;
9783;SDS011;4931;44.874;-1.092;2023-06-19T12:33:41;3.83;;;3.10;;
9783;SDS011;4931;44.874;-1.092;2023-06-19T12:36:10;5.38;;;3.22;;
9783;SDS011;4931;44.874;-1.092;2023-06-19T12:38:37;4.10;;;2.95;;
9783;SDS011;4931;44.874;-1.092;2023-06-19T12:41:04;4.72;;;3.17;;
9783;SDS011;4931;44.874;-1.092;2023-06-19T12:43:29;3.85;;;2.88;;
9783;SDS011;4931;44.874;-1.092;2023-06-19T12:45:56;3.95;;;3.22;;
9783;SDS011;4931;44.874;-1.092;2023-06-19T12:48:24;4.10;;;3.13;;
9783;SDS011;4931;44.874;-1.092;2023-06-19T12:50:52;5.60;;;3.30;;
9783;SDS011;4931;44.874;-1.092;2023-06-19T12:53:18;6.72;;;3.38;;
9783;SDS011;4931;44.874;-1.092;2023-06-19T12:55:44;4.85;;;3.10;;
9783;SDS011;4931;44.874;-1.092;2023-06-19T12:58:09;4.63;;;3.38;;
9783;SDS011;4931;44.874;-1.092;2023-06-19T13:00:36;5.93;;;3.40;;
9783;SDS011;4931;44.874;-1.092;2023-06-19T13:03:02;5.38;;;3.75;;
9783;SDS011;4931;44.874;-1.092;2023-06-19T13:05:27;4.88;;;3.67;;
9783;SDS011;4931;44.874;-1.092;2023-06-19T13:07:54;4.70;;;3.40;;
9783;SDS011;4931;44.874;-1.092;2023-06-19T13:10:20;5.25;;;3.30;;
9783;SDS011;4931;44.874;-1.092;2023-06-19T13:12:45;6.63;;;3.83;;
9783;SDS011;4931;44.874;-1.092;2023-06-19T13:15:11;6.00;;;3.85;;
9783;SDS011;4931;44.874;-1.092;2023-06-19T13:17:37;8.93;;;3.67;;
9783;SDS011;4931;44.874;-1.092;2023-06-19T13:20:02;6.45;;;3.70;;
9783;SDS011;4931;44.874;-1.092;2023-06-19T13:22:30;4.45;;;3.38;;
9783;SDS011;4931;44.874;-1.092;2023-06-19T13:24:56;5.72;;;3.83;;
9783;SDS011;4931;44.874;-1.092;2023-06-19T13:27:21;8.93;;;3.95;;
9783;SDS011;4931;44.874;-1.092;2023-06-19T13:29:47;4.20;;;3.63;;
9783;SDS011;4931;44.874;-1.092;2023-06-19T13:32:12;5.47;;;3.95;;
9783;SDS011;4931;44.874;-1.092;2023-06-19T13:34:38;5.72;;;3.80;;
9783;SDS011;4931;44.874;-1.092;2023-06-19T13:37:03;6.55;;;3.50;;
9783;SDS011;4931;44.874;-1.092;2023-06-19T13:39:29;7.85;;;3.90;;
9783;SDS011;4931;44.874;-1.092;2023-06-19T13:41:55;6.43;;;3.83;;
9783;SDS011;4931;44.874;-1.092;2023-06-19T13:44:21;4.78;;;3.50;;
9783;SDS011;4931;44.874;-1.092;2023-06-19T13:46:47;4.68;;;3.78;;
9783;SDS011;4931;44.874;-1.092;2023-06-19T13:49:12;6.38;;;4.00;;
9783;SDS011;4931;44.874;-1.092;2023-06-19T13:51:38;5.03;;;4.13;;
9783;SDS011;4931;44.874;-1.092;2023-06-19T13:54:04;4.95;;;4.07;;
9783;SDS011;4931;44.874;-1.092;2023-06-19T13:56:30;6.38;;;4.32;;
9783;SDS011;4931;44.874;-1.092;2023-06-19T13:58:57;5.70;;;4.40;;
9783;SDS011;4931;44.874;-1.092;2023-06-19T14:01:23;6.10;;;4.70;;
9783;SDS011;4931;44.874;-1.092;2023-06-19T14:03:50;6.70;;;4.22;;
9783;SDS011;4931;44.874;-1.092;2023-06-19T14:06:16;5.95;;;4.28;;
9783;SDS011;4931;44.874;-1.092;2023-06-19T14:08:42;5.38;;;4.38;;
9783;SDS011;4931;44.874;-1.092;2023-06-19T14:11:07;5.95;;;5.00;;
9783;SDS011;4931;44.874;-1.092;2023-06-19T14:13:33;7.40;;;4.90;;
9783;SDS011;4931;44.874;-1.092;2023-06-19T14:15:58;6.53;;;4.80;;
9783;SDS011;4931;44.874;-1.092;2023-06-19T14:18:24;6.13;;;5.00;;
9783;SDS011;4931;44.874;-1.092;2023-06-19T14:20:49;5.50;;;4.70;;
9783;SDS011;4931;44.874;-1.092;2023-06-19T14:23:15;9.38;;;5.00;;
9783;SDS011;4931;44.874;-1.092;2023-06-19T14:25:41;5.78;;;4.40;;
9783;SDS011;4931;44.874;-1.092;2023-06-19T14:28:06;7.97;;;4.68;;
9783;SDS011;4931;44.874;-1.092;2023-06-19T14:30:32;5.95;;;4.85;;
9783;SDS011;4931;44.874;-1.092;2023-06-19T14:32:57;9.32;;;4.90;;
9783;SDS011;4931;44.874;-1.092;2023-06-19T14:35:23;6.63;;;4.97;;
9783;SDS011;4931;44.874;-1.092;2023-06-19T14:37:49;8.27;;;4.78;;
9783;SDS011;4931;44.874;-1.092;2023-06-19T14:40:14;7.95;;;5.13;;
9783;SDS011;4931;44.874;-1.092;2023-06-19T14:42:40;7.65;;;5.00;;
9783;SDS011;4931;44.874;-1.092;2023-06-19T14:45:06;7.22;;;5.60;;
9783;SDS011;4931;44.874;-1.092;2023-06-19T14:47:32;7.90;;;5.25;;
9783;SDS011;4931;44.874;-1.092;2023-06-19T14:49:59;7.90;;;5.20;;
9783;SDS011;4931;44.874;-1.092;2023-06-19T14:52:24;8.05;;;5.28;;
9783;SDS011;4931;44.874;-1.092;2023-06-19T14:54:50;5.95;;;4.90;;
9783;SDS011;4931;44.874;-1.092;2023-06-19T14:57:15;6.65;;;4.95;;
9783;SDS011;4931;44.874;-1.092;2023-06-19T14:59:41;7.22;;;5.60;;
9783;SDS011;4931;44.874;-1.092;2023-06-19T15:02:06;9.05;;;5.50;;
9783;SDS011;4931;44.874;-1.092;2023-06-19T15:04:35;9.45;;;5.82;;